Time;durP1;ratioP1;P1;durP2;ratioP2;P2;SDS_P1;SDS_P2;PMS_P1;PMS_P2;Temp;Humidity;BMP_temperature;BMP_pressure;BME280_temperature;BME280_humidity;BME280_pressure;Samples;Min_cycle;Max_cycle;Signal;HPM_P1;HPM_P2
2023/02/09 00:02:01;;;;;;;9.68;5.40;;;3.10;90.80;;;;;;5018576;28;20433;-88
2023/02/09 00:04:26;;;;;;;11.85;5.60;;;3.00;90.80;;;;;;5018289;28;20029;-88
2023/02/09 00:06:52;;;;;;;11.05;5.20;;;3.00;91.10;;;;;;5035659;28;20021;-88
2023/02/09 00:09:18;;;;;;;10.93;6.03;;;3.00;91.50;;;;;;5002093;28;20391;-87
2023/02/09 00:14:28;;;;;;;9.70;5.80;;;2.90;92.20;;;;;;5036193;28;20519;-88
2023/02/09 00:16:53;;;;;;;9.73;5.35;;;2.80;92.50;;;;;;5035337;28;20018;-87
2023/02/09 00:19:20;;;;;;;11.35;6.13;;;2.90;92.70;;;;;;5018170;28;20018;-88
2023/02/09 00:21:47;;;;;;;11.93;6.35;;;2.80;92.50;;;;;;5017881;28;20021;-88
2023/02/09 00:24:13;;;;;;;10.13;5.65;;;2.80;92.70;;;;;;5018071;28;20040;-87
2023/02/09 00:26:40;;;;;;;11.52;5.55;;;2.70;92.40;;;;;;5001957;28;20058;-87
2023/02/09 00:29:07;;;;;;;11.65;5.47;;;2.70;92.30;;;;;;5018340;28;20025;-88
2023/02/09 00:31:33;;;;;;;11.00;5.40;;;2.70;92.30;;;;;;5017466;28;20021;-88
2023/02/09 00:34:00;;;;;;;11.75;5.68;;;2.70;92.10;;;;;;5017724;28;20028;-87
2023/02/09 00:36:26;;;;;;;13.13;6.25;;;2.60;92.50;;;;;;5017875;28;20017;-88
2023/02/09 00:38:52;;;;;;;11.70;6.05;;;2.50;92.70;;;;;;5017488;28;20026;-87
2023/02/09 00:42:04;;;;;;;13.18;5.82;;;2.50;92.60;;;;;;5017329;28;20028;-87
2023/02/09 00:44:04;;;;;;;12.07;5.78;;;2.50;93.10;;;;;;5034797;28;20083;-87
2023/02/09 00:46:30;;;;;;;12.40;6.13;;;2.50;93.20;;;;;;5017603;28;20026;-88
2023/02/09 00:48:55;;;;;;;11.32;5.28;;;2.50;93.40;;;;;;5016907;28;20120;-87
2023/02/09 00:51:21;;;;;;;10.98;6.03;;;2.40;93.60;;;;;;5017342;28;20511;-88
2023/02/09 00:53:47;;;;;;;12.45;6.07;;;2.40;94.00;;;;;;5000707;28;20017;-87
2023/02/09 00:56:12;;;;;;;11.35;5.78;;;2.30;93.80;;;;;;4997197;28;20052;-88
2023/02/09 00:58:38;;;;;;;12.95;5.85;;;2.30;94.00;;;;;;4996692;28;20041;-87
2023/02/09 01:01:04;;;;;;;10.77;5.82;;;2.30;94.30;;;;;;4998012;28;20350;-87
2023/02/09 01:03:29;;;;;;;12.00;6.38;;;2.30;94.20;;;;;;5015329;28;20025;-88
2023/02/09 01:05:58;;;;;;;11.07;5.88;;;2.20;94.20;;;;;;5014227;28;20529;-88
2023/02/09 01:08:24;;;;;;;11.20;6.45;;;2.20;94.90;;;;;;5014010;28;20025;-87
2023/02/09 01:10:50;;;;;;;12.63;6.18;;;2.20;94.90;;;;;;5014085;28;20449;-88
2023/02/09 01:13:16;;;;;;;12.85;6.80;;;2.20;95.40;;;;;;5013772;28;20068;-87
2023/02/09 01:15:42;;;;;;;14.35;7.03;;;2.20;95.40;;;;;;5013719;28;20049;-87
2023/02/09 01:18:07;;;;;;;10.93;6.35;;;2.10;95.40;;;;;;4997712;28;20476;-88
2023/02/09 01:20:33;;;;;;;13.77;6.65;;;2.10;95.60;;;;;;5013699;28;20026;-87
2023/02/09 01:22:59;;;;;;;12.80;6.43;;;2.10;95.90;;;;;;4997181;28;20029;-88
2023/02/09 01:25:25;;;;;;;9.70;5.53;;;2.10;95.90;;;;;;5013447;28;20076;-88
2023/02/09 01:27:50;;;;;;;11.43;6.07;;;2.00;96.10;;;;;;4981280;28;20025;-87
2023/02/09 01:30:16;;;;;;;10.93;6.00;;;2.00;96.00;;;;;;5014705;28;20013;-87
2023/02/09 01:32:43;;;;;;;10.35;5.63;;;2.00;96.00;;;;;;4981073;28;20026;-88
2023/02/09 01:35:09;;;;;;;11.40;6.13;;;2.00;96.00;;;;;;5013528;28;20022;-88
2023/02/09 01:37:35;;;;;;;11.95;5.50;;;1.90;96.00;;;;;;5013699;28;20067;-88
2023/02/09 01:40:03;;;;;;;10.45;5.93;;;1.90;95.80;;;;;;5014679;28;20346;-88
2023/02/09 01:42:31;;;;;;;11.23;5.75;;;1.80;95.80;;;;;;5013427;28;20465;-87
2023/02/09 01:45:19;;;;;;;10.45;5.68;;;1.80;95.80;;;;;;5013249;28;20022;-88
2023/02/09 01:47:54;;;;;;;12.25;5.82;;;1.80;95.40;;;;;;5013124;28;20056;-88
2023/02/09 01:50:20;;;;;;;9.25;5.15;;;1.80;95.80;;;;;;5013688;28;20029;-88
2023/02/09 01:52:48;;;;;;;11.10;5.05;;;1.70;93.20;;;;;;5013274;28;20033;-88
2023/02/09 01:55:19;;;;;;;10.13;5.30;;;1.70;93.30;;;;;;5014596;28;20100;-88
2023/02/09 01:58:13;;;;;;;12.50;6.40;;;1.70;92.70;;;;;;5016510;28;20033;-88
2023/02/09 02:00:38;;;;;;;9.45;4.63;;;1.60;91.40;;;;;;5014565;28;20029;-88
2023/02/09 02:03:08;;;;;;;10.63;4.72;;;1.50;91.60;;;;;;4983991;28;20468;-87
2023/02/09 02:05:37;;;;;;;11.07;5.10;;;1.50;91.60;;;;;;5016347;28;20029;-87
2023/02/09 02:08:46;;;;;;;10.45;5.13;;;1.50;91.90;;;;;;5016379;28;20025;-88
2023/02/09 02:11:13;;;;;;;10.13;5.60;;;1.50;92.30;;;;;;5016377;28;20017;-88
2023/02/09 02:13:38;;;;;;;9.73;5.25;;;1.60;93.20;;;;;;5016466;28;20068;-88
2023/02/09 02:16:27;;;;;;;9.50;5.45;;;1.60;93.30;;;;;;5033456;28;20457;-88
2023/02/09 02:19:33;;;;;;;12.95;6.20;;;1.70;93.90;;;;;;5009215;28;20029;-88
2023/02/09 02:22:16;;;;;;;12.38;4.95;;;1.70;93.60;;;;;;5016062;28;20025;-88
2023/02/09 02:24:47;;;;;;;10.30;5.13;;;1.70;93.90;;;;;;5016501;28;20079;-88
2023/02/09 02:27:33;;;;;;;11.25;6.10;;;1.70;93.80;;;;;;5015972;28;20025;-88
2023/02/09 02:30:05;;;;;;;10.00;5.10;;;1.70;93.60;;;;;;5015547;28;20013;-88
2023/02/09 02:32:53;;;;;;;10.13;5.05;;;1.60;93.10;;;;;;5015957;28;20018;-89
2023/02/09 02:35:36;;;;;;;12.15;5.40;;;1.60;92.70;;;;;;5016434;28;20047;-88
2023/02/09 02:38:19;;;;;;;11.93;6.15;;;1.60;93.40;;;;;;5016002;28;20037;-88
2023/02/09 02:40:58;;;;;;;9.80;5.35;;;1.60;93.80;;;;;;5034062;28;20455;-89
2023/02/09 02:43:49;;;;;;;9.48;4.75;;;1.60;94.00;;;;;;5017626;28;20029;-88
2023/02/09 02:46:40;;;;;;;12.68;5.30;;;1.70;93.40;;;;;;5034054;28;20017;-89
2023/02/09 02:49:22;;;;;;;10.15;4.63;;;1.60;93.20;;;;;;5016141;28;20032;-88
2023/02/09 02:51:52;;;;;;;8.60;5.05;;;1.50;92.40;;;;;;5015799;28;20111;-88
2023/02/09 02:54:24;;;;;;;10.13;4.70;;;1.50;92.50;;;;;;5016669;28;20023;-88
2023/02/09 02:57:13;;;;;;;12.50;4.75;;;1.50;91.60;;;;;;5017330;28;20052;-88
2023/02/09 02:59:49;;;;;;;8.80;4.57;;;1.40;91.70;;;;;;5039460;28;20040;-88
2023/02/09 03:02:20;;;;;;;10.55;4.88;;;1.40;91.30;;;;;;5040558;28;20041;-87
2023/02/09 03:04:51;;;;;;;12.05;5.28;;;1.40;91.40;;;;;;5031162;28;20026;-88
2023/02/09 03:07:17;;;;;;;9.10;5.05;;;1.30;91.50;;;;;;5018146;28;20026;-89
2023/02/09 03:09:54;;;;;;;9.45;5.18;;;1.30;91.40;;;;;;5015731;28;20036;-88
2023/02/09 03:12:26;;;;;;;13.77;5.85;;;1.30;91.40;;;;;;5016039;28;20049;-88
2023/02/09 03:15:22;;;;;;;12.38;5.28;;;1.20;91.50;;;;;;5033417;28;20021;-88
2023/02/09 03:18:04;;;;;;;11.68;5.20;;;1.20;91.50;;;;;;5016017;28;20100;-88
2023/02/09 03:20:42;;;;;;;12.30;5.40;;;1.20;91.50;;;;;;5015993;28;20101;-88
2023/02/09 03:23:16;;;;;;;11.75;5.20;;;1.10;91.60;;;;;;5033365;28;20112;-88
2023/02/09 03:25:51;;;;;;;9.27;4.57;;;1.10;91.60;;;;;;5016053;28;20116;-88
2023/02/09 03:28:22;;;;;;;10.93;5.25;;;1.10;91.70;;;;;;5015762;28;20075;-88
2023/02/09 03:30:49;;;;;;;10.80;5.43;;;1.10;92.20;;;;;;5016539;28;20014;-88
2023/02/09 03:33:25;;;;;;;10.10;5.10;;;1.20;92.60;;;;;;4986929;28;20021;-88
2023/02/09 03:35:57;;;;;;;11.23;5.63;;;1.20;93.10;;;;;;5019350;28;20029;-88
2023/02/09 03:38:23;;;;;;;9.60;4.90;;;1.20;93.40;;;;;;5036715;28;20081;-88
2023/02/09 03:40:49;;;;;;;10.25;5.43;;;1.20;92.60;;;;;;5019412;28;20025;-88
2023/02/09 03:43:15;;;;;;;12.38;5.15;;;1.20;92.40;;;;;;4986329;28;20040;-89
2023/02/09 03:45:40;;;;;;;9.85;5.20;;;1.20;92.00;;;;;;5019268;28;20028;-88
2023/02/09 03:48:06;;;;;;;9.32;4.82;;;1.20;91.90;;;;;;5027197;28;20026;-88
2023/02/09 03:50:33;;;;;;;9.75;4.93;;;1.20;92.00;;;;;;5015125;28;20379;-87
2023/02/09 03:52:59;;;;;;;10.52;4.70;;;1.20;91.40;;;;;;5029839;28;20029;-87
2023/02/09 03:55:25;;;;;;;12.30;4.90;;;1.20;91.40;;;;;;5023774;28;20101;-88
2023/02/09 03:57:51;;;;;;;12.48;5.57;;;1.20;91.10;;;;;;5003010;28;20507;-88
2023/02/09 04:00:17;;;;;;;10.10;5.00;;;1.20;91.10;;;;;;5018776;28;20025;-88
2023/02/09 04:02:43;;;;;;;10.60;5.05;;;1.20;90.90;;;;;;5002602;28;20164;-87
2023/02/09 04:05:10;;;;;;;9.25;4.70;;;1.20;90.90;;;;;;5018578;28;20032;-88
2023/02/09 04:07:36;;;;;;;10.32;5.68;;;1.20;91.10;;;;;;5018683;28;20052;-88
2023/02/09 04:10:03;;;;;;;12.10;4.90;;;1.10;91.10;;;;;;5002454;28;20017;-89
2023/02/09 04:12:28;;;;;;;11.45;4.82;;;1.10;91.20;;;;;;5018598;28;20010;-89
2023/02/09 04:14:54;;;;;;;8.75;4.90;;;1.00;91.30;;;;;;5018703;28;20018;-88
2023/02/09 04:17:20;;;;;;;9.05;4.90;;;1.00;91.30;;;;;;5005535;28;20025;-88
2023/02/09 04:19:45;;;;;;;11.73;5.00;;;1.00;91.40;;;;;;5002574;28;20026;-88
2023/02/09 04:22:11;;;;;;;11.35;5.15;;;1.00;91.50;;;;;;5002302;28;20063;-88
2023/02/09 04:24:37;;;;;;;13.77;5.20;;;0.90;91.40;;;;;;5002142;28;20022;-88
2023/02/09 04:27:02;;;;;;;9.02;4.82;;;0.90;91.40;;;;;;5018534;28;20030;-88
2023/02/09 04:29:28;;;;;;;9.68;5.72;;;0.90;91.40;;;;;;5018166;28;20028;-88
2023/02/09 04:31:54;;;;;;;13.82;5.00;;;1.00;91.40;;;;;;5002042;28;20036;-88
2023/02/09 04:34:22;;;;;;;10.70;5.28;;;0.90;91.40;;;;;;5035485;28;20048;-88
2023/02/09 04:36:49;;;;;;;8.80;5.07;;;0.90;91.70;;;;;;5018218;28;20070;-88
2023/02/09 04:39:14;;;;;;;10.82;4.70;;;0.90;91.50;;;;;;5001565;28;20026;-88
2023/02/09 04:41:40;;;;;;;11.32;5.22;;;0.90;91.50;;;;;;5001815;28;20022;-88
2023/02/09 04:44:06;;;;;;;10.55;5.22;;;0.90;91.50;;;;;;5017186;28;20120;-88
2023/02/09 04:46:31;;;;;;;10.95;5.82;;;0.90;91.30;;;;;;5018060;28;20384;-88
2023/02/09 04:48:57;;;;;;;11.38;5.53;;;0.80;91.30;;;;;;5017844;28;20028;-88
2023/02/09 04:51:23;;;;;;;13.80;5.35;;;0.80;91.50;;;;;;5001299;28;20040;-88
2023/02/09 04:53:48;;;;;;;10.27;5.18;;;0.80;91.70;;;;;;4985258;28;20021;-88
2023/02/09 04:56:15;;;;;;;10.13;4.95;;;0.80;92.00;;;;;;4997739;28;20049;-88
2023/02/09 05:01:26;;;;;;;10.20;5.57;;;0.80;92.00;;;;;;5014799;28;20374;-88
2023/02/09 05:03:56;;;;;;;10.82;5.38;;;0.80;91.70;;;;;;5014661;28;20026;-88
2023/02/09 05:06:22;;;;;;;13.98;5.70;;;0.80;91.80;;;;;;4998390;28;20029;-88
2023/02/09 05:08:48;;;;;;;13.23;5.80;;;0.80;91.50;;;;;;5014431;28;20076;-88
2023/02/09 05:11:13;;;;;;;8.65;4.70;;;0.80;91.70;;;;;;4981452;28;20467;-89
2023/02/09 05:13:39;;;;;;;11.68;5.78;;;0.80;91.60;;;;;;4982144;28;20022;-88
2023/02/09 05:16:12;;;;;;;11.50;5.82;;;0.80;91.50;;;;;;5014245;28;20030;-89
2023/02/09 05:18:40;;;;;;;10.70;5.90;;;0.80;91.90;;;;;;5014355;28;20014;-89
2023/02/09 05:21:06;;;;;;;12.48;5.55;;;0.80;92.00;;;;;;4999359;28;20022;-88
2023/02/09 05:23:31;;;;;;;11.98;5.22;;;0.80;92.10;;;;;;5019866;28;20026;-88
2023/02/09 05:25:57;;;;;;;14.82;5.97;;;0.80;92.10;;;;;;5005510;28;20026;-88
2023/02/09 05:28:24;;;;;;;12.48;5.82;;;0.80;92.00;;;;;;5028182;28;20061;-88
2023/02/09 05:30:58;;;;;;;11.07;5.47;;;0.80;92.10;;;;;;5013999;28;20022;-88
2023/02/09 05:33:24;;;;;;;8.70;4.80;;;0.80;92.30;;;;;;4999826;28;20056;-89
2023/02/09 05:35:51;;;;;;;11.85;5.90;;;0.90;92.20;;;;;;5014422;28;20018;-88
2023/02/09 05:38:18;;;;;;;14.02;5.90;;;0.90;92.30;;;;;;5013715;28;20113;-88
2023/02/09 05:40:43;;;;;;;13.43;5.78;;;1.00;91.90;;;;;;4997904;28;20026;-89
2023/02/09 05:43:09;;;;;;;12.73;6.03;;;1.00;92.20;;;;;;5013585;28;20025;-89
2023/02/09 05:45:35;;;;;;;11.65;5.40;;;1.00;92.10;;;;;;5013695;28;20029;-88
2023/02/09 05:48:01;;;;;;;10.38;5.90;;;1.00;91.70;;;;;;5014014;28;20390;-88
2023/02/09 05:50:27;;;;;;;9.15;5.50;;;1.10;91.90;;;;;;4997757;28;20017;-89
2023/02/09 05:52:52;;;;;;;12.20;5.97;;;1.10;92.00;;;;;;5014013;28;20022;-88
2023/02/09 05:55:18;;;;;;;13.48;6.60;;;1.10;91.90;;;;;;4997836;28;20032;-88
2023/02/09 05:57:44;;;;;;;13.20;6.72;;;1.10;91.80;;;;;;5032115;28;20046;-88
2023/02/09 06:00:10;;;;;;;13.20;6.00;;;1.10;91.50;;;;;;5017195;28;20032;-88
2023/02/09 06:02:36;;;;;;;13.40;6.65;;;1.10;91.40;;;;;;5000735;28;20021;-88
2023/02/09 06:05:04;;;;;;;11.23;6.05;;;1.00;91.70;;;;;;5000355;28;20392;-88
2023/02/09 06:07:30;;;;;;;13.52;6.22;;;1.00;91.60;;;;;;5000572;28;20029;-88
2023/02/09 06:09:55;;;;;;;11.18;5.60;;;1.00;91.90;;;;;;5015987;28;20071;-88
2023/02/09 06:12:21;;;;;;;11.23;5.60;;;0.90;92.10;;;;;;5016395;28;20469;-88
2023/02/09 06:14:47;;;;;;;12.45;6.07;;;1.00;92.30;;;;;;5016723;28;20073;-88
2023/02/09 06:17:12;;;;;;;10.82;5.78;;;1.00;92.20;;;;;;4984090;28;20022;-88
2023/02/09 06:19:38;;;;;;;12.70;6.18;;;1.00;92.20;;;;;;5000168;28;20163;-88
2023/02/09 06:22:05;;;;;;;9.98;5.63;;;1.00;91.90;;;;;;5000502;28;20030;-88
2023/02/09 06:24:30;;;;;;;10.88;5.43;;;1.00;91.80;;;;;;5016287;28;20036;-87
2023/02/09 06:26:56;;;;;;;12.60;7.13;;;0.90;91.90;;;;;;5000044;28;20025;-87
2023/02/09 06:29:22;;;;;;;12.05;6.15;;;0.90;92.00;;;;;;5016142;28;20018;-88
2023/02/09 06:31:47;;;;;;;13.20;6.13;;;1.00;92.20;;;;;;5000040;28;20067;-88
2023/02/09 06:34:13;;;;;;;11.75;5.60;;;1.00;92.00;;;;;;5016441;28;20017;-88
2023/02/09 06:36:39;;;;;;;13.85;6.40;;;1.00;92.00;;;;;;5016468;28;20466;-88
2023/02/09 06:39:09;;;;;;;13.35;5.78;;;1.10;92.00;;;;;;5000197;28;20026;-88
2023/02/09 06:41:35;;;;;;;12.27;6.17;;;1.10;91.90;;;;;;5016259;28;20052;-88
2023/02/09 06:44:03;;;;;;;13.70;6.50;;;1.20;91.60;;;;;;5016388;28;20296;-88
2023/02/09 06:46:32;;;;;;;13.60;6.85;;;1.10;91.70;;;;;;5016856;28;20017;-88
2023/02/09 06:48:58;;;;;;;13.60;5.90;;;1.20;91.90;;;;;;5000396;28;20060;-88
2023/02/09 06:51:23;;;;;;;12.38;6.63;;;1.20;92.00;;;;;;5015774;28;20049;-88
2023/02/09 06:53:49;;;;;;;15.52;7.07;;;1.20;91.80;;;;;;5016509;28;20021;-87
2023/02/09 06:56:15;;;;;;;13.95;7.22;;;1.20;91.90;;;;;;4983557;28;20041;-87
2023/02/09 06:58:48;;;;;;;14.05;7.10;;;1.20;91.20;;;;;;4983685;28;20369;-88
2023/02/09 07:01:14;;;;;;;15.55;7.22;;;1.20;91.40;;;;;;5016436;28;20030;-88
2023/02/09 07:03:41;;;;;;;14.82;7.18;;;1.20;91.70;;;;;;5016382;28;20104;-88
2023/02/09 07:06:12;;;;;;;11.90;6.38;;;1.20;92.00;;;;;;5000975;28;20052;-88
2023/02/09 07:08:45;;;;;;;11.55;6.03;;;1.30;92.00;;;;;;5020383;28;20112;-88
2023/02/09 07:11:14;;;;;;;15.43;6.53;;;1.30;92.20;;;;;;5020156;28;20114;-88
2023/02/09 07:13:40;;;;;;;13.52;6.57;;;1.30;92.00;;;;;;5020022;28;20028;-88
2023/02/09 07:16:07;;;;;;;12.73;6.20;;;1.30;92.10;;;;;;5019715;28;20017;-88
2023/02/09 07:18:34;;;;;;;17.40;6.97;;;1.30;92.10;;;;;;5019592;28;20476;-87
2023/02/09 07:21:04;;;;;;;12.20;7.18;;;1.30;92.00;;;;;;5003741;28;20116;-87
2023/02/09 07:23:30;;;;;;;13.43;6.60;;;1.30;91.90;;;;;;5037388;28;20025;-88
2023/02/09 07:25:56;;;;;;;14.15;6.93;;;1.30;91.70;;;;;;5019990;28;20315;-87
2023/02/09 07:28:22;;;;;;;11.57;6.10;;;1.30;91.90;;;;;;5037803;28;20065;-89
2023/02/09 07:30:51;;;;;;;12.65;6.35;;;1.30;91.80;;;;;;5019902;28;20022;-89
2023/02/09 07:33:18;;;;;;;13.82;6.55;;;1.30;91.90;;;;;;5020047;28;20105;-88
2023/02/09 07:35:44;;;;;;;15.68;7.15;;;1.30;92.00;;;;;;5019655;28;20052;-88
2023/02/09 07:38:10;;;;;;;12.60;6.50;;;1.30;92.10;;;;;;5019527;28;20018;-87
2023/02/09 07:40:37;;;;;;;10.93;6.07;;;1.30;91.90;;;;;;5019493;28;20032;-87
2023/02/09 07:43:04;;;;;;;13.13;6.38;;;1.30;91.90;;;;;;5037736;28;20025;-87
2023/02/09 07:45:30;;;;;;;18.17;6.57;;;1.30;92.00;;;;;;5039753;28;20033;-89
2023/02/09 07:47:56;;;;;;;12.10;6.50;;;1.20;92.00;;;;;;5041427;28;20029;-87
2023/02/09 07:50:22;;;;;;;14.10;6.82;;;1.30;92.10;;;;;;5034404;28;20081;-87
2023/02/09 07:52:47;;;;;;;12.05;6.10;;;1.30;91.90;;;;;;5003886;28;20029;-87
2023/02/09 07:55:13;;;;;;;13.43;6.43;;;1.20;91.80;;;;;;5002569;28;20025;-87
2023/02/09 07:57:39;;;;;;;11.55;6.43;;;1.20;91.90;;;;;;5002691;28;20049;-87
2023/02/09 08:00:05;;;;;;;15.40;6.50;;;1.20;92.10;;;;;;5019223;28;20449;-88
2023/02/09 08:02:35;;;;;;;12.70;6.40;;;1.20;92.00;;;;;;5002690;28;20036;-87
2023/02/09 08:05:03;;;;;;;15.75;6.82;;;1.30;92.30;;;;;;5018840;28;20412;-88
2023/02/09 08:07:30;;;;;;;12.05;5.95;;;1.20;92.40;;;;;;5017853;28;20030;-88
2023/02/09 08:09:56;;;;;;;15.20;7.88;;;1.20;92.20;;;;;;5002833;28;20096;-88
2023/02/09 08:12:58;;;;;;;14.68;6.80;;;1.20;92.30;;;;;;5003082;28;20021;-88
2023/02/09 08:15:15;;;;;;;14.63;7.13;;;1.20;92.40;;;;;;5036635;28;20029;-87
2023/02/09 08:17:41;;;;;;;12.90;7.60;;;1.20;92.40;;;;;;5017459;28;20480;-88
2023/02/09 08:20:19;;;;;;;15.30;6.57;;;1.20;92.50;;;;;;5001709;28;20352;-87
2023/02/09 08:22:48;;;;;;;17.13;7.70;;;1.20;92.70;;;;;;4998796;28;20018;-87
2023/02/09 08:25:19;;;;;;;16.95;6.80;;;1.30;92.70;;;;;;5016392;28;20034;-88
2023/02/09 08:27:47;;;;;;;;;;;1.30;92.90;;;;;;5012159;28;20423;-90
2023/02/09 08:30:15;;;;;;;16.70;6.80;;;1.30;92.90;;;;;;5018945;28;19901;-88
2023/02/09 08:32:41;;;;;;;13.15;6.95;;;1.20;92.90;;;;;;5018674;28;20021;-88
2023/02/09 08:35:07;;;;;;;15.45;7.25;;;1.20;93.00;;;;;;5002034;28;20037;-90
2023/02/09 08:37:33;;;;;;;15.38;7.18;;;1.30;93.30;;;;;;5018819;28;20092;-89
2023/02/09 08:39:58;;;;;;;17.08;7.05;;;1.20;93.50;;;;;;5018239;28;20033;-88
2023/02/09 08:42:24;;;;;;;16.05;7.70;;;1.20;93.20;;;;;;5002096;28;20057;-88
2023/02/09 08:44:50;;;;;;;14.23;7.25;;;1.30;93.10;;;;;;5002336;28;20034;-88
2023/02/09 08:47:15;;;;;;;15.15;7.25;;;1.40;93.10;;;;;;5003149;28;20120;-87
2023/02/09 08:49:41;;;;;;;12.70;6.55;;;1.40;93.20;;;;;;5002086;28;20060;-89
2023/02/09 08:52:07;;;;;;;14.18;7.32;;;1.40;92.80;;;;;;5018483;28;20380;-88
2023/02/09 08:54:34;;;;;;;12.52;6.45;;;1.50;92.80;;;;;;5018229;28;20026;-88
2023/02/09 08:57:00;;;;;;;14.82;7.18;;;1.60;93.00;;;;;;5018054;28;20045;-89
2023/02/09 08:59:26;;;;;;;13.25;6.70;;;1.60;92.90;;;;;;5018165;28;20017;-88
2023/02/09 09:01:52;;;;;;;13.23;6.43;;;1.70;93.00;;;;;;5016847;28;20415;-88
2023/02/09 09:04:21;;;;;;;13.32;7.35;;;1.70;92.70;;;;;;5015730;28;20021;-89
2023/02/09 09:06:47;;;;;;;13.10;6.82;;;1.70;92.50;;;;;;5015342;28;20111;-89
2023/02/09 09:09:13;;;;;;;14.95;7.18;;;1.80;92.40;;;;;;5015256;28;20057;-89
2023/02/09 09:11:39;;;;;;;13.60;6.93;;;1.80;92.30;;;;;;5014963;28;20516;-89
2023/02/09 09:14:07;;;;;;;14.95;7.05;;;1.90;92.40;;;;;;5016976;28;20338;-92
2023/02/09 09:16:33;;;;;;;12.75;6.93;;;1.80;92.50;;;;;;5020627;28;20037;-90
2023/02/09 09:18:59;;;;;;;14.90;6.95;;;1.90;92.40;;;;;;5032774;28;20022;-89
2023/02/09 09:21:24;;;;;;;11.75;7.15;;;1.90;92.70;;;;;;5021144;28;20010;-89
2023/02/09 09:23:50;;;;;;;13.38;7.28;;;2.00;92.70;;;;;;5002709;28;20055;-89
2023/02/09 09:26:16;;;;;;;15.68;6.75;;;2.10;92.70;;;;;;4998478;28;20034;-90
2023/02/09 09:28:43;;;;;;;13.35;7.00;;;2.20;92.90;;;;;;5019615;28;20089;-89
2023/02/09 09:31:15;;;;;;;12.35;6.32;;;2.20;92.70;;;;;;5021682;28;20022;-89
2023/02/09 09:33:41;;;;;;;14.98;7.90;;;2.30;92.40;;;;;;5011052;28;20021;-89
2023/02/09 09:36:09;;;;;;;13.38;7.10;;;2.20;92.20;;;;;;5007807;28;20125;-89
2023/02/09 09:38:37;;;;;;;13.60;7.05;;;2.30;92.10;;;;;;5003714;28;20022;-89
2023/02/09 09:41:05;;;;;;;14.73;7.30;;;2.40;92.40;;;;;;4999249;28;20116;-89
2023/02/09 09:43:34;;;;;;;12.75;6.80;;;2.40;92.40;;;;;;4997947;28;20022;-89
2023/02/09 09:46:04;;;;;;;13.23;7.15;;;2.50;92.70;;;;;;4998024;28;20025;-89
2023/02/09 09:48:52;;;;;;;12.45;7.05;;;2.50;91.90;;;;;;4998696;28;20026;-89
2023/02/09 09:51:34;;;;;;;13.00;7.10;;;2.60;91.60;;;;;;5035021;28;20024;-88
2023/02/09 09:54:06;;;;;;;16.08;7.93;;;2.60;91.90;;;;;;4997783;28;20124;-89
2023/02/09 09:56:34;;;;;;;12.70;6.88;;;2.70;92.50;;;;;;5003031;28;20073;-89
2023/02/09 09:59:00;;;;;;;13.68;7.03;;;2.70;91.90;;;;;;5014057;28;20029;-89
2023/02/09 10:01:29;;;;;;;12.65;6.55;;;2.70;91.90;;;;;;5017876;28;20037;-90
2023/02/09 10:04:13;;;;;;;12.43;6.88;;;2.80;92.50;;;;;;5017677;28;20033;-87
2023/02/09 10:06:42;;;;;;;15.55;7.65;;;2.80;92.60;;;;;;5018184;28;20026;-86
2023/02/09 10:09:24;;;;;;;15.73;7.57;;;2.80;92.60;;;;;;5040946;28;20021;-87
2023/02/09 10:12:01;;;;;;;20.35;7.55;;;2.80;91.60;;;;;;5039671;28;20037;-87
2023/02/09 10:14:27;;;;;;;13.65;7.45;;;2.80;91.30;;;;;;5025504;28;20133;-87
2023/02/09 10:16:53;;;;;;;14.50;7.80;;;2.80;91.40;;;;;;5000285;28;20053;-87
2023/02/09 10:19:22;;;;;;;16.00;7.72;;;2.80;91.90;;;;;;5000209;28;20021;-87
2023/02/09 10:21:48;;;;;;;15.43;8.25;;;2.80;91.70;;;;;;5016427;28;20164;-87
2023/02/09 10:24:19;;;;;;;15.90;7.65;;;2.80;91.80;;;;;;5000455;28;20037;-86
2023/02/09 10:27:06;;;;;;;13.77;7.60;;;2.90;91.90;;;;;;5013745;28;20033;-87
2023/02/09 10:29:34;;;;;;;15.90;8.57;;;2.90;91.90;;;;;;5014000;28;20175;-87
2023/02/09 10:32:04;;;;;;;12.82;6.88;;;3.00;92.00;;;;;;5034385;28;20025;-87
2023/02/09 10:34:46;;;;;;;14.75;7.13;;;3.10;92.00;;;;;;5021039;28;20025;-87
2023/02/09 10:37:19;;;;;;;13.27;7.15;;;3.10;92.00;;;;;;5013132;28;20021;-87
2023/02/09 10:40:07;;;;;;;15.15;7.55;;;3.20;91.80;;;;;;5012765;28;20426;-88
2023/02/09 10:42:39;;;;;;;14.60;7.70;;;3.30;91.80;;;;;;5000099;28;20035;-88
2023/02/09 10:45:14;;;;;;;14.68;8.15;;;3.30;91.50;;;;;;5015554;28;20049;-88
2023/02/09 10:47:40;;;;;;;16.13;7.57;;;3.30;91.30;;;;;;5020452;28;20089;-87
2023/02/09 10:50:16;;;;;;;14.05;7.55;;;3.40;91.70;;;;;;5019983;28;20116;-86
2023/02/09 10:53:01;;;;;;;13.93;7.97;;;3.50;91.60;;;;;;5020378;28;20472;-86
2023/02/09 10:55:36;;;;;;;14.45;7.80;;;3.60;91.80;;;;;;5037395;28;20021;-86
2023/02/09 10:58:08;;;;;;;15.65;8.38;;;3.60;91.10;;;;;;5019456;28;20037;-86
2023/02/09 11:00:40;;;;;;;14.88;8.00;;;3.70;91.30;;;;;;5008515;28;20018;-86
2023/02/09 11:03:24;;;;;;;16.15;8.65;;;3.80;91.90;;;;;;5016694;28;20077;-86
2023/02/09 11:06:16;;;;;;;24.52;8.07;;;3.90;91.80;;;;;;5016258;28;20112;-86
2023/02/09 11:09:03;;;;;;;15.82;8.35;;;4.00;91.90;;;;;;5017487;28;20112;-87
2023/02/09 11:11:37;;;;;;;15.48;7.53;;;4.10;91.10;;;;;;5017595;28;20025;-86
2023/02/09 11:14:08;;;;;;;17.45;7.90;;;4.20;91.00;;;;;;5016088;28;20021;-86
2023/02/09 11:16:46;;;;;;;15.65;7.82;;;4.20;91.20;;;;;;5019037;28;20025;-86
2023/02/09 11:19:24;;;;;;;14.55;8.55;;;4.30;90.70;;;;;;5019989;28;20108;-86
2023/02/09 11:22:05;;;;;;;14.07;8.05;;;4.40;90.80;;;;;;5019330;28;20048;-86
2023/02/09 11:25:00;;;;;;;15.20;8.18;;;4.50;91.20;;;;;;5019822;28;20128;-87
2023/02/09 11:27:46;;;;;;;15.00;8.82;;;4.50;90.70;;;;;;5019785;28;20060;-87
2023/02/09 11:30:58;;;;;;;15.20;9.02;;;4.60;90.90;;;;;;5018889;28;20116;-87
2023/02/09 11:33:48;;;;;;;15.43;8.20;;;4.60;91.10;;;;;;5003261;28;20065;-86
2023/02/09 11:37:01;;;;;;;14.40;8.75;;;4.70;91.60;;;;;;5019164;28;20025;-86
2023/02/09 11:39:50;;;;;;;15.68;8.20;;;4.80;91.90;;;;;;5018907;28;20072;-86
2023/02/09 11:45:12;;;;;;;16.23;8.57;;;4.90;92.30;;;;;;5036901;28;20040;-89
2023/02/09 11:47:54;;;;;;;15.35;8.75;;;5.00;91.90;;;;;;5020050;28;20029;-88
2023/02/09 11:50:32;;;;;;;18.80;9.23;;;5.10;92.30;;;;;;5019649;28;20017;-89
2023/02/09 11:53:19;;;;;;;14.27;8.20;;;5.10;92.30;;;;;;5022648;28;20022;-90
2023/02/09 11:56:15;;;;;;;15.07;7.97;;;5.20;92.60;;;;;;5015878;28;20037;-88
2023/02/09 11:58:46;;;;;;;17.33;9.63;;;5.20;92.00;;;;;;4987800;28;20116;-88
2023/02/09 12:01:49;;;;;;;15.02;8.52;;;5.20;91.80;;;;;;5016959;28;20022;-88
2023/02/09 12:04:39;;;;;;;15.02;9.02;;;5.30;92.50;;;;;;5017083;28;20092;-89
2023/02/09 12:07:16;;;;;;;15.20;8.98;;;5.40;92.90;;;;;;4998907;28;20524;-88
2023/02/09 12:10:04;;;;;;;19.35;9.68;;;5.40;92.60;;;;;;4999624;28;20021;-89
2023/02/09 12:12:42;;;;;;;17.85;9.40;;;5.50;92.30;;;;;;5016890;28;20080;-89
2023/02/09 12:15:14;;;;;;;16.60;8.82;;;5.50;92.30;;;;;;4999369;28;20025;-89
2023/02/09 12:18:01;;;;;;;15.38;9.32;;;5.60;91.70;;;;;;4999809;28;20018;-89
2023/02/09 12:20:37;;;;;;;18.83;10.00;;;5.60;92.30;;;;;;4999688;28;20053;-89
2023/02/09 12:23:24;;;;;;;15.55;9.68;;;5.60;92.50;;;;;;4999391;28;20079;-89
2023/02/09 12:25:55;;;;;;;15.85;9.48;;;5.70;92.40;;;;;;5000009;28;20030;-89
2023/02/09 12:28:26;;;;;;;16.20;10.18;;;5.70;91.30;;;;;;5017085;28;20029;-88
2023/02/09 12:30:52;;;;;;;17.85;9.38;;;5.80;92.10;;;;;;5022794;28;20037;-89
2023/02/09 12:33:20;;;;;;;18.10;10.00;;;5.80;92.50;;;;;;5022786;28;20034;-89
2023/02/09 12:36:02;;;;;;;17.73;10.45;;;5.80;92.50;;;;;;5022561;28;20041;-88
2023/02/09 12:38:52;;;;;;;19.10;10.23;;;5.80;92.10;;;;;;5035129;28;20006;-90
2023/02/09 12:41:20;;;;;;;21.52;10.85;;;5.90;92.20;;;;;;5018855;28;20018;-88
2023/02/09 12:43:48;;;;;;;20.38;11.32;;;6.00;92.50;;;;;;5012790;28;20027;-88
2023/02/09 12:46:17;;;;;;;18.67;10.50;;;6.00;92.80;;;;;;4999384;28;20037;-88
2023/02/09 12:49:00;;;;;;;17.20;10.18;;;6.20;92.90;;;;;;4998930;28;20036;-88
2023/02/09 12:51:46;;;;;;;17.10;10.40;;;6.20;93.10;;;;;;4999392;28;20018;-89
2023/02/09 12:54:42;;;;;;;18.98;10.40;;;6.20;92.90;;;;;;4998751;28;20079;-89
2023/02/09 12:57:14;;;;;;;15.48;9.95;;;6.30;92.10;;;;;;4995307;28;20049;-89
2023/02/09 12:59:48;;;;;;;19.23;11.32;;;6.30;92.40;;;;;;4996979;28;20112;-89
2023/02/09 13:02:30;;;;;;;20.13;11.48;;;6.20;92.10;;;;;;4998731;28;20026;-89
2023/02/09 13:05:02;;;;;;;19.00;10.68;;;6.20;92.50;;;;;;4995025;28;20022;-89
2023/02/09 13:07:49;;;;;;;18.88;11.10;;;6.30;93.00;;;;;;4995318;28;20030;-89
2023/02/09 13:10:17;;;;;;;17.30;11.10;;;6.30;93.30;;;;;;4994960;28;20026;-89
2023/02/09 13:12:55;;;;;;;18.52;12.25;;;6.40;93.20;;;;;;4995253;28;20073;-89
2023/02/09 13:15:25;;;;;;;19.05;11.32;;;6.40;93.20;;;;;;4996639;28;20026;-88
2023/02/09 13:18:29;;;;;;;20.42;11.27;;;6.50;92.90;;;;;;4994587;28;20108;-90